SILO ALERT LOG
| Silo ID | Alert Type | Alert Message | Silo Type | Points | Depth (mm) | Strength | Temperature (°C) | Humidity (%) | Height (mm) | Volume (㎥) | Weight (t) | Flag | Time |
|---|---|---|---|---|---|---|---|---|---|---|---|---|---|
| DJSAD08 | Humidity | 습도센서 측정값이 80% 초과 | 평 | 0 | 7700 | 3814 | 12.4 | 81.2 | -120 | -17.075 | 0 | 29 | 2024-01-11 06:39:39.000 |
| DJSAD02 | Humidity | 습도센서 측정값이 80% 초과 | 평 | 378 | 1139 | 4288 | 1.2 | 88.2 | 7640 | 316.3 | 199.965 | 11 | 2024-01-11 06:39:39.000 |
| DJDJD03 | Humidity | 습도센서 측정값이 80% 초과 | 평 | 71 | 3955 | 5052 | 1.1 | 81.2 | 3724 | 451.204 | 285.251 | 0 | 2024-01-11 06:39:39.000 |
| DJHNR08 | Temperature | 온도센서 측정값이 0도 미만 | 평 | 373 | 5412 | 2138 | -0.6 | 68.4 | 2267 | 322.587 | 203.939 | 11 | 2024-01-11 06:39:36.000 |
| DJSAD11 | Humidity | 습도센서 측정값이 80% 초과 | 평 | 332 | 1637 | 3270 | 0.6 | 80.5 | 5942 | 845.606 | 534.592 | 11 | 2024-01-11 06:39:35.000 |
| DJSSD05 | Temperature | 온도센서 측정값이 0도 미만 | 평 | 840 | 2550 | 4870 | -45.4 | 43.6 | 5529 | 769.542 | 486.505 | 0 | 2024-01-11 06:39:33.000 |
| DJSAD12 | Humidity | 습도센서 측정값이 80% 초과 | 평 | 0 | 7700 | 0 | 2.2 | 86.8 | -120 | -17.075 | 0 | 31 | 2024-01-11 06:39:33.000 |
| DJHNR01 | Humidity | 습도센서 측정값이 80% 초과 | 호퍼 | 471 | 4306 | 5028 | 3 | 99.9 | 11073 | 472.952 | 299 | 13 | 2024-01-11 06:39:33.000 |
| DJSSD01 | Humidity | 습도센서 측정값이 80% 초과 | 평 | 787 | 2568 | 4649 | 4.7 | 84 | 5511 | 767.149 | 484.991 | 0 | 2024-01-11 06:39:33.000 |
| DJSSD04 | Temperature | 온도센서 상태 이상 | 평 | 0 | 8200 | 0 | -999 | -999 | -120 | -16.702 | 0 | 31 | 2024-01-11 06:39:33.000 |
| DJSAD16 | Humidity | 습도센서 측정값이 80% 초과 | 평 | 90 | 6495 | 3401 | 3.1 | 80.7 | 1084 | 107.949 | 68.245 | 11 | 2024-01-11 06:39:31.000 |
| DJSSD09 | Temperature | 온도센서 측정값이 0도 미만 | 평 | 123 | 2967 | 3077 | -45.4 | 0 | 4712 | 655.844 | 414.625 | 11 | 2024-01-11 06:39:31.000 |
| DJSSD11 | Temperature | 온도센서 측정값이 0도 미만 | 호퍼 | 442 | 7402 | 146 | -3.7 | 82.3 | 3827 | 28.638 | 15.608 | 0 | 2024-01-11 06:39:31.000 |
| DJSSD11 | Humidity | 습도센서 측정값이 80% 초과 | 호퍼 | 442 | 7402 | 146 | -3.7 | 82.3 | 3827 | 28.638 | 15.608 | 0 | 2024-01-11 06:39:31.000 |
| DJDJD04 | Humidity | 습도센서 측정값이 80% 초과 | 평 | 282 | 4188 | 4464 | 2.2 | 82.1 | 3491 | 423.023 | 267.435 | 11 | 2024-01-11 06:39:31.000 |
| DJHNR11 | Temperature | 온도센서 측정값이 0도 미만 | 호퍼 | 240 | 3228 | 1080 | -4.1 | 75.4 | 7151 | 100.306 | 63.413 | 11 | 2024-01-11 06:39:31.000 |
| DJSAD17 | Humidity | 습도센서 측정값이 80% 초과 | 평 | 441 | 3120 | 4799 | 2.9 | 80.7 | 4459 | 444.09 | 280.754 | 0 | 2024-01-11 06:39:30.000 |
| DJSAD18 | Humidity | 습도센서 측정값이 80% 초과 | 평 | 121 | 1404 | 5804 | 3.5 | 80.8 | 6175 | 614.968 | 388.783 | 11 | 2024-01-11 06:39:30.000 |
| DJDJD01 | Temperature | 온도센서 측정값이 0도 미만 | 평 | 87 | 6428 | 3926 | -1 | 81 | 1251 | 151.68 | 95.892 | 0 | 2024-01-11 06:39:30.000 |
| DJDJD01 | Humidity | 습도센서 측정값이 80% 초과 | 평 | 87 | 6428 | 3926 | -1 | 81 | 1251 | 151.68 | 95.892 | 0 | 2024-01-11 06:39:30.000 |
[첫 페이지] [10002] [10003] [10004] [10005] 10006 [10007] [10008] [10009] [10010] [마지막 페이지]